createdAt,value
2023-03-06T00:01:33.422Z,3.35
2023-03-06T00:04:08.363Z,3.16
2023-03-06T00:06:41.707Z,3.20
2023-03-06T00:09:14.640Z,3.29
2023-03-06T00:11:47.442Z,3.26
2023-03-06T00:14:21.613Z,3.26
2023-03-06T00:16:55.270Z,3.42
2023-03-06T00:19:28.788Z,3.44
2023-03-06T00:22:03.124Z,3.21
2023-03-06T00:24:36.259Z,3.29
2023-03-06T00:27:09.338Z,3.20
2023-03-06T00:29:44.700Z,3.22
2023-03-06T00:32:18.461Z,3.23
2023-03-06T00:34:52.187Z,3.18
2023-03-06T00:37:25.945Z,3.05
2023-03-06T00:39:59.834Z,3.07
2023-03-06T00:42:32.699Z,2.89
2023-03-06T00:45:08.487Z,3.08
2023-03-06T00:47:41.689Z,3.12
2023-03-06T00:50:14.486Z,3.04
2023-03-06T00:52:47.343Z,3.14
2023-03-06T00:55:20.254Z,3.12
2023-03-06T00:57:53.098Z,3.21
2023-03-06T01:00:27.430Z,3.12
2023-03-06T01:03:00.615Z,3.18
2023-03-06T01:05:36.457Z,3.20
2023-03-06T01:08:09.316Z,3.16
2023-03-06T01:10:42.340Z,3.15
2023-03-06T01:13:15.470Z,3.14
2023-03-06T01:15:49.750Z,3.04
2023-03-06T01:18:22.561Z,3.05
2023-03-06T01:20:55.381Z,3.08
2023-03-06T01:23:28.203Z,3.07
2023-03-06T01:26:01.923Z,3.03
2023-03-06T01:28:35.361Z,3.04
2023-03-06T01:31:11.464Z,3.09
2023-03-06T01:33:44.251Z,2.98
2023-03-06T01:36:17.537Z,2.98
2023-03-06T01:38:51.371Z,3.02
2023-03-06T01:41:24.368Z,2.82
2023-03-06T01:43:57.187Z,2.77
2023-03-06T01:46:37.858Z,2.81
2023-03-06T01:49:19.400Z,2.59
2023-03-06T01:51:56.727Z,2.73
2023-03-06T01:54:33.567Z,2.69
2023-03-06T01:57:10.784Z,2.72
2023-03-06T01:59:44.020Z,2.70
2023-03-06T02:02:18.592Z,2.76
2023-03-06T02:04:51.628Z,2.71
2023-03-06T02:07:24.667Z,2.66
2023-03-06T02:09:57.469Z,2.76
2023-03-06T02:12:30.841Z,2.73
2023-03-06T02:15:04.308Z,2.68
2023-03-06T02:17:38.641Z,2.72
2023-03-06T02:20:14.653Z,2.69
2023-03-06T02:22:54.880Z,2.62
2023-03-06T02:25:39.584Z,2.59
2023-03-06T02:28:14.427Z,2.78
2023-03-06T02:30:49.155Z,2.84
2023-03-06T02:33:25.637Z,2.79
2023-03-06T02:36:00.996Z,2.72
2023-03-06T02:38:38.647Z,2.82
2023-03-06T02:41:13.220Z,2.75
2023-03-06T02:43:49.035Z,2.88
2023-03-06T02:46:22.017Z,2.81
2023-03-06T02:48:54.913Z,2.78
2023-03-06T02:51:28.293Z,2.87
2023-03-06T02:54:01.147Z,2.68
2023-03-06T02:56:35.361Z,2.71
2023-03-06T02:59:08.648Z,2.63
2023-03-06T03:01:41.634Z,2.66
2023-03-06T03:04:14.596Z,2.72
2023-03-06T03:06:47.429Z,2.66
2023-03-06T03:09:20.848Z,2.48
2023-03-06T03:11:55.122Z,2.41
2023-03-06T03:14:28.105Z,2.53
2023-03-06T03:17:02.398Z,2.41
2023-03-06T03:19:36.236Z,2.41
2023-03-06T03:22:09.130Z,2.47
2023-03-06T03:24:42.321Z,2.51
2023-03-06T03:27:17.382Z,2.45
2023-03-06T03:29:50.297Z,2.44
2023-03-06T03:32:23.278Z,2.41
2023-03-06T03:34:57.006Z,2.26
2023-03-06T03:37:31.430Z,2.37
2023-03-06T03:40:06.566Z,2.44
2023-03-06T03:42:41.237Z,2.50
2023-03-06T03:45:15.158Z,2.45
2023-03-06T03:47:48.088Z,2.40
2023-03-06T03:50:21.094Z,2.19
2023-03-06T03:52:54.072Z,2.34
2023-03-06T03:55:27.530Z,2.33
2023-03-06T03:58:05.517Z,2.30
2023-03-06T04:00:38.972Z,2.25
2023-03-06T04:03:17.957Z,2.37
2023-03-06T04:05:53.894Z,2.29
2023-03-06T04:08:27.294Z,2.28
2023-03-06T04:11:00.196Z,2.36
2023-03-06T04:13:35.839Z,2.27
2023-03-06T04:16:09.953Z,2.16
2023-03-06T04:18:44.635Z,2.27
2023-03-06T04:21:17.516Z,2.25
2023-03-06T04:23:50.713Z,2.22
2023-03-06T04:26:23.563Z,2.20
2023-03-06T04:28:58.443Z,2.23
2023-03-06T04:31:31.407Z,2.14
2023-03-06T04:34:04.412Z,2.23
2023-03-06T04:36:37.699Z,2.16
2023-03-06T04:39:15.368Z,2.20
2023-03-06T04:41:48.173Z,2.15
2023-03-06T04:44:22.840Z,2.02
2023-03-06T04:46:55.635Z,2.15
2023-03-06T04:49:28.496Z,2.20
2023-03-06T04:52:01.704Z,2.22
2023-03-06T04:54:34.503Z,2.30
2023-03-06T04:57:07.334Z,2.25
2023-03-06T04:59:41.526Z,2.24
2023-03-06T05:02:14.414Z,2.13
2023-03-06T05:04:47.216Z,2.16
2023-03-06T05:07:20.047Z,2.19
2023-03-06T05:09:53.245Z,2.10
2023-03-06T05:12:26.201Z,2.07
2023-03-06T05:15:00.317Z,2.05
2023-03-06T05:17:33.465Z,2.22
2023-03-06T05:20:08.443Z,2.14
2023-03-06T05:22:41.411Z,2.11
2023-03-06T05:25:14.396Z,2.14
2023-03-06T05:27:47.567Z,2.16
2023-03-06T05:30:23.135Z,2.21
2023-03-06T05:32:55.963Z,2.21
2023-03-06T05:35:29.381Z,2.07
2023-03-06T05:38:03.115Z,2.16
2023-03-06T05:40:35.907Z,2.13
2023-03-06T05:43:09.124Z,2.08
2023-03-06T05:45:43.318Z,2.15
2023-03-06T05:48:16.150Z,2.21
2023-03-06T05:50:56.131Z,2.11
2023-03-06T05:53:29.269Z,2.07
2023-03-06T05:56:04.241Z,2.25
2023-03-06T05:58:37.392Z,2.18
2023-03-06T06:01:13.293Z,2.11
2023-03-06T06:03:46.418Z,2.07
2023-03-06T06:06:19.439Z,2.11
2023-03-06T06:08:52.229Z,1.96
2023-03-06T06:11:25.197Z,2.11
2023-03-06T06:13:57.967Z,2.08
2023-03-06T06:16:32.427Z,2.15
2023-03-06T06:19:05.434Z,2.16
2023-03-06T06:21:38.248Z,2.18
2023-03-06T06:24:11.039Z,2.20
2023-03-06T06:26:44.209Z,2.12
2023-03-06T06:29:19.979Z,2.08
2023-03-06T06:31:55.205Z,2.15
2023-03-06T06:34:30.399Z,2.07
2023-03-06T06:37:03.356Z,2.16
2023-03-06T06:39:36.327Z,2.15
2023-03-06T06:42:28.597Z,2.14
2023-03-06T06:45:02.827Z,2.08
2023-03-06T06:47:40.905Z,2.10
2023-03-06T06:50:14.904Z,2.21
2023-03-06T06:52:47.870Z,2.24
2023-03-06T06:55:20.716Z,2.29
2023-03-06T06:57:53.521Z,2.18
2023-03-06T07:00:27.030Z,2.23
2023-03-06T07:03:01.540Z,2.30
2023-03-06T07:05:34.503Z,2.06
2023-03-06T07:08:07.515Z,2.21
2023-03-06T07:10:40.349Z,2.19
2023-03-06T07:13:13.406Z,2.30
2023-03-06T07:15:46.221Z,2.29
2023-03-06T07:18:20.347Z,2.36
2023-03-06T07:20:54.635Z,2.39
2023-03-06T07:23:27.490Z,2.22
2023-03-06T07:26:00.354Z,2.31
2023-03-06T07:28:46.178Z,2.41
2023-03-06T07:31:27.379Z,2.36
2023-03-06T07:34:04.728Z,2.41
2023-03-06T07:36:39.520Z,2.45
2023-03-06T07:39:12.290Z,2.50
2023-03-06T07:41:45.315Z,2.32
2023-03-06T07:44:18.242Z,2.37
2023-03-06T07:46:51.161Z,2.51
2023-03-06T07:49:25.437Z,2.57
2023-03-06T07:51:59.199Z,2.40
2023-03-06T07:54:32.588Z,2.58
2023-03-06T07:57:05.377Z,2.50
2023-03-06T07:59:38.158Z,2.53
2023-03-06T08:02:11.794Z,2.39
2023-03-06T08:04:46.119Z,2.44
2023-03-06T08:07:19.029Z,2.38
2023-03-06T08:09:52.078Z,2.39
2023-03-06T08:12:24.876Z,2.41
2023-03-06T08:14:57.785Z,2.13
2023-03-06T08:17:30.961Z,2.27
2023-03-06T08:20:06.601Z,2.16
2023-03-06T08:22:39.758Z,2.13
2023-03-06T08:25:14.252Z,2.25
2023-03-06T08:27:47.770Z,2.24
2023-03-06T08:30:21.456Z,2.22
2023-03-06T08:32:54.300Z,2.30
2023-03-06T08:35:28.478Z,2.35
2023-03-06T08:38:01.255Z,2.34
2023-03-06T08:40:34.046Z,2.29
2023-03-06T08:43:11.308Z,2.17
2023-03-06T08:45:45.321Z,2.28
2023-03-06T08:48:18.644Z,2.26
2023-03-06T08:50:53.524Z,2.34
2023-03-06T08:53:41.720Z,2.39
2023-03-06T08:56:16.633Z,2.53
2023-03-06T08:58:50.125Z,2.39
2023-03-06T09:01:24.674Z,2.48
2023-03-06T09:03:59.890Z,2.51
2023-03-06T09:06:36.401Z,2.72
2023-03-06T09:09:09.793Z,2.75
2023-03-06T09:11:42.719Z,2.87
2023-03-06T09:14:15.549Z,2.92
2023-03-06T09:16:49.878Z,2.98
2023-03-06T09:19:23.765Z,3.20
2023-03-06T09:22:00.899Z,3.16
2023-03-06T09:24:34.193Z,3.49
2023-03-06T09:27:07.605Z,3.59
2023-03-06T09:29:40.374Z,3.36
2023-03-06T09:32:13.215Z,3.34
2023-03-06T09:34:46.118Z,3.64
2023-03-06T09:37:20.525Z,3.65
2023-03-06T09:39:53.297Z,3.82
2023-03-06T09:42:28.185Z,3.69
2023-03-06T09:45:02.078Z,3.80
2023-03-06T09:47:48.865Z,3.78
2023-03-06T09:50:33.264Z,3.97
2023-03-06T09:53:32.829Z,3.77
2023-03-06T09:56:12.662Z,3.35
2023-03-06T09:58:50.799Z,3.43
2023-03-06T10:01:27.915Z,3.40
2023-03-06T10:04:12.433Z,3.47
2023-03-06T10:06:49.728Z,3.54
2023-03-06T10:09:28.170Z,3.57
2023-03-06T10:12:06.544Z,3.63
2023-03-06T10:14:47.759Z,3.59
2023-03-06T10:17:23.904Z,3.73
2023-03-06T10:19:56.569Z,3.28
2023-03-06T10:22:32.959Z,3.53
2023-03-06T10:25:13.577Z,3.62
2023-03-06T10:27:49.126Z,3.75
2023-03-06T10:30:32.573Z,3.78
2023-03-06T10:33:10.342Z,3.78
2023-03-06T10:35:48.291Z,3.82
2023-03-06T10:38:23.364Z,3.83
2023-03-06T10:41:07.626Z,3.84
2023-03-06T10:43:42.622Z,3.73
2023-03-06T10:46:28.375Z,3.77
2023-03-06T10:49:02.586Z,4.05
2023-03-06T10:51:35.723Z,4.09
2023-03-06T10:54:20.518Z,4.07
2023-03-06T10:56:54.676Z,4.02
2023-03-06T10:59:29.333Z,4.23
2023-03-06T11:02:26.699Z,4.31
2023-03-06T11:05:02.077Z,4.51
2023-03-06T11:07:53.435Z,4.79
2023-03-06T11:10:27.273Z,5.11
2023-03-06T11:13:06.092Z,5.31
2023-03-06T11:15:38.897Z,5.45
2023-03-06T11:18:31.106Z,5.52
2023-03-06T11:21:08.871Z,5.62
2023-03-06T11:23:44.710Z,6.18
2023-03-06T11:26:29.741Z,5.63
2023-03-06T11:29:37.510Z,5.46
2023-03-06T11:32:17.343Z,5.39
2023-03-06T11:34:54.080Z,5.30
2023-03-06T11:37:43.265Z,4.87
2023-03-06T11:40:21.088Z,5.48
2023-03-06T11:43:04.252Z,5.53
2023-03-06T11:45:45.866Z,5.33
2023-03-06T11:48:27.829Z,5.51
2023-03-06T11:51:07.877Z,5.69
2023-03-06T11:53:42.699Z,5.72
2023-03-06T11:56:28.872Z,5.64
2023-03-06T11:59:24.793Z,6.36
2023-03-06T12:02:08.003Z,6.65
2023-03-06T12:04:53.708Z,6.81
2023-03-06T12:07:33.862Z,6.72
2023-03-06T12:10:16.684Z,7.21
2023-03-06T12:13:15.854Z,7.03
2023-03-06T12:16:05.379Z,7.22
2023-03-06T12:18:51.055Z,7.51
2023-03-06T12:21:34.700Z,7.01
2023-03-06T12:24:25.663Z,6.41
2023-03-06T12:27:13.393Z,6.61
2023-03-06T12:30:01.541Z,6.64
2023-03-06T12:32:47.422Z,5.79
2023-03-06T12:35:48.365Z,5.91
2023-03-06T12:39:00.639Z,5.78
2023-03-06T12:41:43.819Z,6.18
2023-03-06T12:44:39.047Z,6.14
2023-03-06T12:47:16.157Z,6.12
2023-03-06T12:49:54.188Z,6.57
2023-03-06T12:52:31.966Z,6.47
2023-03-06T12:55:08.565Z,6.88
2023-03-06T12:57:45.555Z,6.96
2023-03-06T13:01:03.719Z,7.55
2023-03-06T13:03:51.081Z,7.48
2023-03-06T13:06:49.910Z,7.75
2023-03-06T13:09:35.460Z,7.13
2023-03-06T13:12:32.915Z,8.20
2023-03-06T13:15:30.936Z,8.30
2023-03-06T13:18:26.504Z,7.72
2023-03-06T13:20:59.875Z,7.53
2023-03-06T13:23:51.562Z,7.08
2023-03-06T13:27:01.003Z,7.44
2023-03-06T13:30:06.127Z,7.04
2023-03-06T13:32:39.031Z,6.80
2023-03-06T13:35:46.844Z,6.89
2023-03-06T13:38:31.663Z,7.08
2023-03-06T13:41:43.628Z,7.38
2023-03-06T13:44:52.178Z,7.30
2023-03-06T13:48:15.606Z,7.18
2023-03-06T13:50:45.259Z,7.01
2023-03-06T13:54:09.109Z,6.86
2023-03-06T13:57:20.358Z,6.71
2023-03-06T14:00:24.187Z,6.84
2023-03-06T14:03:36.033Z,6.66
2023-03-06T14:06:42.305Z,6.70
2023-03-06T14:09:24.860Z,7.25
2023-03-06T14:12:01.506Z,7.65
2023-03-06T14:14:43.406Z,7.71
2023-03-06T14:17:26.286Z,7.48
2023-03-06T14:20:02.584Z,7.33
2023-03-06T14:22:35.428Z,7.25
2023-03-06T14:25:17.054Z,7.58
2023-03-06T14:27:51.523Z,8.06
2023-03-06T14:30:26.933Z,8.20
2023-03-06T14:33:01.138Z,7.94
2023-03-06T14:35:34.241Z,8.37
2023-03-06T14:38:08.014Z,8.35
2023-03-06T14:40:44.761Z,9.03
2023-03-06T14:43:21.429Z,8.90
2023-03-06T14:45:57.200Z,7.36
2023-03-06T14:48:41.164Z,8.07
2023-03-06T14:51:19.949Z,8.19
2023-03-06T14:53:54.921Z,8.07
2023-03-06T14:56:28.690Z,8.29
2023-03-06T14:59:04.100Z,7.70
2023-03-06T15:01:39.610Z,8.58
2023-03-06T15:04:25.064Z,8.47
2023-03-06T15:07:00.148Z,8.78
2023-03-06T15:09:35.795Z,9.01
2023-03-06T15:12:30.502Z,9.01
2023-03-06T15:15:05.712Z,9.49
2023-03-06T15:17:41.076Z,9.69
2023-03-06T15:20:42.281Z,10.26
2023-03-06T15:23:20.837Z,10.12
2023-03-06T15:25:57.119Z,11.25
2023-03-06T15:28:35.921Z,11.16
2023-03-06T15:31:21.650Z,10.64
2023-03-06T15:34:00.736Z,10.92
2023-03-06T15:36:37.236Z,9.90
2023-03-06T15:39:47.493Z,10.04
2023-03-06T15:42:22.302Z,9.56
2023-03-06T15:44:56.053Z,9.62
2023-03-06T15:47:28.940Z,9.36
2023-03-06T15:50:01.824Z,8.64
2023-03-06T15:52:36.915Z,8.42
2023-03-06T15:55:12.145Z,8.33
2023-03-06T15:57:50.173Z,9.06
2023-03-06T16:00:28.321Z,9.18
2023-03-06T16:03:02.858Z,9.61
2023-03-06T16:05:35.723Z,9.69
2023-03-06T16:08:10.824Z,9.16
2023-03-06T16:10:45.339Z,8.81
2023-03-06T16:13:26.713Z,9.01
2023-03-06T16:15:59.537Z,9.54
2023-03-06T16:18:32.311Z,9.45
2023-03-06T16:21:06.561Z,8.74
2023-03-06T16:23:41.138Z,8.42
2023-03-06T16:26:20.386Z,8.14
2023-03-06T16:28:53.212Z,8.10
2023-03-06T16:31:26.002Z,7.76
2023-03-06T16:33:58.902Z,7.79
2023-03-06T16:36:32.464Z,8.09
2023-03-06T16:39:07.365Z,7.62
2023-03-06T16:41:40.235Z,7.32
2023-03-06T16:44:13.428Z,7.26
2023-03-06T16:46:48.408Z,6.65
2023-03-06T16:49:23.573Z,6.79
2023-03-06T16:51:56.753Z,6.76
2023-03-06T16:54:30.937Z,6.61
2023-03-06T16:57:03.853Z,6.61
2023-03-06T16:59:36.970Z,6.22
2023-03-06T17:02:10.845Z,6.51
2023-03-06T17:04:43.742Z,6.29
2023-03-06T17:07:16.556Z,6.16
2023-03-06T17:09:50.816Z,5.60
2023-03-06T17:12:23.671Z,5.43
2023-03-06T17:14:56.667Z,5.23
2023-03-06T17:17:29.690Z,5.12
2023-03-06T17:20:03.202Z,4.91
2023-03-06T17:22:36.931Z,4.91
2023-03-06T17:25:11.519Z,4.74
2023-03-06T17:27:44.430Z,5.12
2023-03-06T17:30:17.554Z,5.33
2023-03-06T17:32:50.771Z,4.90
2023-03-06T17:35:23.566Z,5.06
2023-03-06T17:37:58.002Z,5.23
2023-03-06T17:40:34.521Z,5.19
2023-03-06T17:43:07.411Z,5.17
2023-03-06T17:45:40.306Z,5.02
2023-03-06T17:48:13.097Z,5.09
2023-03-06T17:50:53.900Z,4.91
2023-03-06T17:53:27.571Z,5.26
2023-03-06T17:56:03.736Z,5.15
2023-03-06T17:58:36.907Z,5.15
2023-03-06T18:01:13.627Z,5.27
2023-03-06T18:03:48.478Z,5.05
2023-03-06T18:06:22.147Z,5.02
2023-03-06T18:08:58.353Z,5.14
2023-03-06T18:11:32.979Z,4.87
2023-03-06T18:14:05.856Z,4.79
2023-03-06T18:16:38.744Z,4.98
2023-03-06T18:19:12.222Z,4.81
2023-03-06T18:21:47.206Z,4.87
2023-03-06T18:24:20.047Z,4.71
2023-03-06T18:26:54.267Z,4.76
2023-03-06T18:29:27.096Z,4.88
2023-03-06T18:32:01.897Z,4.91
2023-03-06T18:34:35.079Z,4.74
2023-03-06T18:37:07.934Z,4.62
2023-03-06T18:39:40.895Z,4.71
2023-03-06T18:42:15.038Z,4.61
2023-03-06T18:44:48.786Z,4.70
2023-03-06T18:47:22.207Z,4.56
2023-03-06T18:49:55.993Z,4.70
2023-03-06T18:52:28.794Z,4.50
2023-03-06T18:55:01.850Z,4.32
2023-03-06T18:57:36.136Z,4.59
2023-03-06T19:00:10.042Z,4.65
2023-03-06T19:02:42.827Z,4.60
2023-03-06T19:05:15.662Z,4.69
2023-03-06T19:07:48.465Z,4.72
2023-03-06T19:10:21.293Z,4.52
2023-03-06T19:12:55.430Z,4.56
2023-03-06T19:15:28.207Z,4.66
2023-03-06T19:18:01.575Z,4.76
2023-03-06T19:20:34.658Z,4.45
2023-03-06T19:23:08.242Z,4.58
2023-03-06T19:25:41.319Z,4.43
2023-03-06T19:28:15.926Z,4.36
2023-03-06T19:30:48.714Z,4.37
2023-03-06T19:33:21.627Z,4.34
2023-03-06T19:35:54.504Z,4.32
2023-03-06T19:38:27.395Z,4.23
2023-03-06T19:41:00.941Z,4.26
2023-03-06T19:43:35.383Z,4.31
2023-03-06T19:46:12.541Z,4.25
2023-03-06T19:48:45.686Z,4.28
2023-03-06T19:51:18.560Z,4.33
2023-03-06T19:53:51.475Z,4.32
2023-03-06T19:56:26.712Z,4.25
2023-03-06T19:59:00.967Z,4.40
2023-03-06T20:01:34.363Z,4.25
2023-03-06T20:04:07.331Z,4.23
2023-03-06T20:06:40.628Z,4.31
2023-03-06T20:09:13.654Z,4.23
2023-03-06T20:11:46.461Z,4.29
2023-03-06T20:14:20.994Z,4.19
2023-03-06T20:16:54.218Z,4.35
2023-03-06T20:19:27.034Z,4.20
2023-03-06T20:21:59.869Z,4.17
2023-03-06T20:24:32.837Z,4.15
2023-03-06T20:27:06.027Z,4.15
2023-03-06T20:29:43.207Z,4.17
2023-03-06T20:32:16.393Z,4.12
2023-03-06T20:34:49.259Z,4.17
2023-03-06T20:37:22.142Z,4.22
2023-03-06T20:39:55.054Z,4.18
2023-03-06T20:42:28.107Z,4.19
2023-03-06T20:45:02.689Z,4.13
2023-03-06T20:47:35.661Z,4.13
2023-03-06T20:50:09.226Z,4.19
2023-03-06T20:52:42.381Z,4.32
2023-03-06T20:55:15.386Z,4.24
2023-03-06T20:57:50.174Z,4.19
2023-03-06T21:00:24.311Z,4.19
2023-03-06T21:02:57.182Z,4.19
2023-03-06T21:05:29.982Z,4.12
2023-03-06T21:08:02.806Z,4.17
2023-03-06T21:10:37.812Z,4.13
2023-03-06T21:13:10.482Z,4.27
2023-03-06T21:15:47.730Z,4.17
2023-03-06T21:18:21.329Z,4.22
2023-03-06T21:20:54.283Z,4.09
2023-03-06T21:23:27.251Z,4.02
2023-03-06T21:26:00.667Z,4.07
2023-03-06T21:28:33.688Z,4.02
2023-03-06T21:31:09.432Z,4.00
2023-03-06T21:33:42.675Z,4.03
2023-03-06T21:36:16.121Z,3.98
2023-03-06T21:38:50.060Z,3.90
2023-03-06T21:41:25.062Z,3.63
2023-03-06T21:43:58.275Z,3.97
2023-03-06T21:46:33.346Z,3.80
2023-03-06T21:49:06.738Z,3.96
2023-03-06T21:51:39.719Z,3.85
2023-03-06T21:54:12.994Z,3.90
2023-03-06T21:56:45.869Z,3.85
2023-03-06T21:59:18.669Z,3.82
2023-03-06T22:01:52.921Z,3.77
2023-03-06T22:04:25.872Z,3.76
2023-03-06T22:06:58.672Z,3.81
2023-03-06T22:09:31.466Z,3.72
2023-03-06T22:12:04.710Z,3.67
2023-03-06T22:14:37.896Z,3.65
2023-03-06T22:17:12.037Z,3.61
2023-03-06T22:19:44.821Z,3.62
2023-03-06T22:22:17.699Z,3.58
2023-03-06T22:24:50.459Z,3.39
2023-03-06T22:27:23.420Z,3.37
2023-03-06T22:29:56.244Z,3.28
2023-03-06T22:32:30.417Z,3.31
2023-03-06T22:35:03.463Z,3.21
2023-03-06T22:37:36.316Z,3.17
2023-03-06T22:40:10.534Z,3.15
2023-03-06T22:42:43.411Z,2.95
2023-03-06T22:45:16.638Z,2.93
2023-03-06T22:47:53.390Z,3.09
2023-03-06T22:50:28.092Z,3.09
2023-03-06T22:53:01.107Z,3.00
2023-03-06T22:55:35.771Z,3.08
2023-03-06T22:58:08.561Z,3.18
2023-03-06T23:00:41.391Z,3.17
2023-03-06T23:03:15.729Z,3.19
2023-03-06T23:05:48.483Z,3.07
2023-03-06T23:08:21.876Z,3.16
2023-03-06T23:10:54.686Z,3.18
2023-03-06T23:13:46.670Z,3.17
2023-03-06T23:16:38.412Z,3.28
2023-03-06T23:19:31.725Z,3.29
2023-03-06T23:22:22.836Z,3.25
2023-03-06T23:25:14.306Z,3.47
2023-03-06T23:27:50.096Z,3.45
2023-03-06T23:30:24.357Z,3.46
2023-03-06T23:32:57.478Z,3.45
2023-03-06T23:35:33.951Z,3.54
2023-03-06T23:38:07.134Z,3.56
2023-03-06T23:40:40.674Z,3.41
2023-03-06T23:43:13.514Z,3.56
2023-03-06T23:45:53.525Z,3.63
2023-03-06T23:48:27.677Z,3.55
2023-03-06T23:51:05.240Z,3.54
2023-03-06T23:53:38.010Z,3.60
2023-03-06T23:56:11.120Z,3.61
2023-03-06T23:58:45.370Z,3.61
